Main page
METAR-TAF:

METAR-TAF

Airports :

Shawbury, England

RAF Shawbury

latitude: 52-48N, longitude: 002-40W, elevation: 76 m

Current weather observation

The report was made 1 hour and 24 minutes ago, at 22:50 UTC
Wind 4 kt from the South/Southwest
Temperature 12°C
Humidity 88%
Pressure 1019 hPa
Visibility 10 km or more

METAR: EGOS 192250Z AUTO 21004KT 9999 BKN038/// 12/10 Q1019

Time: 01:14 (00:14 UTC)

Forecast

The report was made 10 hours and 35 minutes ago, at 13:39 UTC
Forecast valid from 19 at 15 UTC to 19 at 18 UTC
Wind 4 kt from variable directions
Visibility 10 km or more
Scattered clouds at a height of 3500 ft

TAF: EGOS 191339Z 1915/1918 VRB04KT 9999 SCT035

Weather observations and forecasts of more than 4000 airports (METAR and TAF reports).

The available stations are represented by yellow and red dots on the map.

Hover mouse over dot to see the name of the station.

Then click to see weather observations and forecasts.

To change the map : click on the green buttons with a black cross to zoom in, on the green button with a dash to zoom out, or on the green arrows for adjacent maps.


METAR-TAF: